Meteo Giornale » Osservazioni meteo Italia » Grazzanise

ore: 00:55 - Osservazioni Meteo Grazzanise
Lat. 41° 3' N Lon. 14° 4' E Alt. 9 metri s.l.m.

poco_nuvoloso Europe/Rome

13 °C

Poco Nuvoloso

Temp. 24 Ore

6 °C

23 °C

Nord

5.5 Km/h

Dew point 12 °C

Umidità 93 %

Visibilità  10 Km

Il sole sorge alle ore 06:04

Il sole tramonta alle ore 19:58

Data e Ora Cielo e Fenomeni T °C DP °C Um. % Pres. hPa Vis. km Vento km/h
Oggi h: 00:55 poco_nuvoloso Poco Nuvoloso 13 12 93 1014 10 N 5.5
Ieri h: 23:55 poco_nuvoloso Poco Nuvoloso 13 12 93 1014 10 N 5.5
Ieri h: 22:55 poco_nuvoloso Poco Nuvoloso 13 12 93 1014 10 N 11.1
Ieri h: 21:55 poco_nuvoloso Poco Nuvoloso 13 12 93 1014 10 N/NO 7.4
Ieri h: 20:55 poco_nuvoloso Poco Nuvoloso 16 14 87 1013 10 N 7.4
Ieri h: 19:55 poco_nuvoloso Poco Nuvoloso 17 14 82 1013 10 N 5.5
Ieri h: 18:55 poco_nuvoloso Poco Nuvoloso 21 12 56 1013 10 S/SO 7.4
Ieri h: 17:55 poco_nuvoloso Poco Nuvoloso 22 11 49 1013 10 S 16.7
Ieri h: 16:55 poco_nuvoloso Poco Nuvoloso 22 10 46 1013 10 S 14.8
Ieri h: 15:55 poco_nuvoloso Poco Nuvoloso 22 13 56 1013 10 S/SO 24
Ieri h: 14:55 poco_nuvoloso Poco Nuvoloso 22 12 53 1014 10 S/SO 16.7
Ieri h: 13:55 poco_nuvoloso Poco Nuvoloso 23 9 40 1014 10 S/SO 18.5
Ieri h: 12:55 poco_nuvoloso Poco Nuvoloso 22 10 46 1014 10 SO 14.8
Ieri h: 11:55 sereno Sereno 21 12 56 1015 10 S 14.8
Ieri h: 09:55 sereno Sereno 18 12 67 1015 10 N 5.5
Ieri h: 08:55 sereno Sereno 14 12 87 1015 10 N 5.5
Ieri h: 07:55 sereno Sereno 8 6 87 1015 10 N 1.8
Ieri h: 06:55 sereno Sereno 6 4 86 1014 10 N/NE 9.3
Ieri h: 05:55 sereno Sereno 7 5 87 1014 10 NE 7.4
Ieri h: 04:55 sereno Sereno 7 5 87 1015 10 NE 9.3
Ieri h: 03:55 sereno Sereno 7 5 87 1015 10 NE 7.4
Ieri h: 02:55 sereno Sereno 8 6 87 1016 10 N 0
Ieri h: 01:55 sereno Sereno 8 6 87 1016 10 N 0